createdAt,value
2017-09-01T00:00:48.545Z,90.28
2017-09-01T00:01:48.567Z,89.61
2017-09-01T00:02:48.588Z,90.61
2017-09-01T00:03:48.614Z,90.23
2017-09-01T00:04:48.636Z,88.79
2017-09-01T00:05:48.655Z,88.65
2017-09-01T00:06:48.676Z,89.51
2017-09-01T00:07:48.702Z,89.8
2017-09-01T00:08:48.723Z,91.19
2017-09-01T00:09:48.743Z,90.9
2017-09-01T00:10:48.765Z,90.61
2017-09-01T00:11:49.106Z,91.09
2017-09-01T00:12:48.813Z,90.04
2017-09-01T00:13:48.861Z,89.65
2017-09-01T00:14:48.859Z,89.47
2017-09-01T00:15:48.881Z,90.81
2017-09-01T00:16:48.899Z,90.81
2017-09-01T00:17:49.247Z,90.33
2017-09-01T00:18:48.946Z,89.75
2017-09-01T00:19:49.279Z,90.61
2017-09-01T00:20:48.993Z,89.56
2017-09-01T00:21:49.012Z,90.81
2017-09-01T00:22:49.038Z,90.61
2017-09-01T00:23:49.059Z,89.94
2017-09-01T00:24:49.081Z,90.71
2017-09-01T00:25:49.103Z,91.86
2017-09-01T00:26:49.127Z,91.96
2017-09-01T00:27:49.158Z,91.38
2017-09-01T00:28:49.173Z,91.57
2017-09-01T00:29:49.199Z,90.81
2017-09-01T00:30:49.217Z,90.61
2017-09-01T00:31:49.249Z,90.42
2017-09-01T00:32:49.266Z,92.05
2017-09-01T00:33:49.289Z,91.09
2017-09-01T00:34:49.311Z,89.75
2017-09-01T00:35:49.329Z,90.9
2017-09-01T00:36:49.356Z,92.15
2017-09-01T00:37:49.376Z,91.67
2017-09-01T00:38:49.398Z,91
2017-09-01T00:39:49.421Z,91.48
2017-09-01T00:40:49.441Z,90.52
2017-09-01T00:41:49.469Z,91.96
2017-09-01T00:42:49.492Z,91.48
2017-09-01T00:43:49.532Z,91.09
2017-09-01T00:44:49.852Z,90.81
2017-09-01T00:45:49.555Z,91.38
2017-09-01T00:46:49.577Z,90.81
2017-09-01T00:47:49.601Z,90.9
2017-09-01T00:48:49.628Z,90.9
2017-09-01T00:49:49.652Z,90.81
2017-09-01T00:50:49.677Z,90.9
2017-09-01T00:51:49.699Z,90.9
2017-09-01T00:52:49.723Z,90.71
2017-09-01T00:53:49.738Z,90.23
2017-09-01T00:54:49.758Z,90.28
2017-09-01T00:55:49.781Z,91.14
2017-09-01T00:56:49.805Z,92.05
2017-09-01T00:57:49.827Z,90.71
2017-09-01T00:58:50.160Z,90.86
2017-09-01T00:59:49.876Z,91.24
2017-09-01T01:00:49.904Z,90.57
2017-09-01T01:01:49.926Z,91.43
2017-09-01T01:02:49.948Z,91.72
2017-09-01T01:03:49.967Z,91.72
2017-09-01T01:04:50.299Z,90.95
2017-09-01T01:05:50.006Z,91.63
2017-09-01T01:06:50.036Z,90.57
2017-09-01T01:07:50.104Z,90.57
2017-09-01T01:08:50.079Z,90.86
2017-09-01T01:09:50.099Z,90.67
2017-09-01T01:10:50.119Z,90.67
2017-09-01T01:11:50.141Z,92.34
2017-09-01T01:12:50.169Z,92.3
2017-09-01T01:13:50.189Z,90.04
2017-09-01T01:14:50.523Z,90.67
2017-09-01T01:15:50.238Z,90.57
2017-09-01T01:16:50.255Z,89.9
2017-09-01T01:17:50.277Z,91.91
2017-09-01T01:18:50.298Z,92.01
2017-09-01T01:19:50.325Z,92.72
2017-09-01T01:20:50.657Z,91.86
2017-09-01T01:21:50.367Z,91.86
2017-09-01T01:22:50.392Z,90.42
2017-09-01T01:23:50.410Z,92.01
2017-09-01T01:24:50.440Z,91.86
2017-09-01T01:25:50.454Z,92.34
2017-09-01T01:26:50.477Z,91.28
2017-09-01T01:27:50.500Z,90.33
2017-09-01T01:28:50.523Z,90.19
2017-09-01T01:29:50.552Z,90.47
2017-09-01T01:30:50.579Z,91.86
2017-09-01T01:31:50.588Z,90.61
2017-09-01T01:32:50.619Z,90.19
2017-09-01T01:33:50.634Z,91.38
2017-09-01T01:34:50.657Z,90.71
2017-09-01T01:35:50.680Z,89.9
2017-09-01T01:36:50.702Z,89.9
2017-09-01T01:37:50.723Z,89.9
2017-09-01T01:38:50.748Z,91.91
2017-09-01T01:39:50.822Z,93.06
2017-09-01T01:40:50.790Z,91.96
2017-09-01T01:41:50.819Z,90.52
2017-09-01T01:42:50.836Z,91.14
2017-09-01T01:43:50.861Z,92.97
2017-09-01T01:44:50.883Z,92.44
2017-09-01T01:45:50.905Z,91.96
2017-09-01T01:46:50.926Z,92.44
2017-09-01T01:47:50.947Z,90.14
2017-09-01T01:48:50.972Z,91
2017-09-01T01:49:50.993Z,90.81
2017-09-01T01:50:51.021Z,90.9
2017-09-01T01:51:51.036Z,90.52
2017-09-01T01:52:51.060Z,90.61
2017-09-01T01:53:51.090Z,90.33
2017-09-01T01:54:51.111Z,90.47
2017-09-01T01:55:51.129Z,91.43
2017-09-01T01:56:51.150Z,91.86
2017-09-01T01:57:51.221Z,91.86
2017-09-01T01:58:51.195Z,92.34
2017-09-01T01:59:51.216Z,89.85
2017-09-01T02:00:51.256Z,90.52
2017-09-01T02:01:51.261Z,92.44
2017-09-01T02:02:51.287Z,92.15
2017-09-01T02:03:51.308Z,90.81
2017-09-01T02:04:51.329Z,91.86
2017-09-01T02:05:51.355Z,92.05
2017-09-01T02:06:51.378Z,92.05
2017-09-01T02:07:51.395Z,91.38
2017-09-01T02:08:51.418Z,90.71
2017-09-01T02:09:51.443Z,90.42
2017-09-01T02:10:51.524Z,91.28
2017-09-01T02:11:51.486Z,92.34
2017-09-01T02:12:51.510Z,89.65
2017-09-01T02:13:51.530Z,89.56
2017-09-01T02:14:51.558Z,90.14
2017-09-01T02:15:51.631Z,90.9
2017-09-01T02:16:51.610Z,90.9
2017-09-01T02:17:51.627Z,90.9
2017-09-01T02:18:51.644Z,90.52
2017-09-01T02:19:51.670Z,88.89
2017-09-01T02:20:51.687Z,90.23
2017-09-01T02:21:51.722Z,92.15
2017-09-01T02:22:51.753Z,91.86
2017-09-01T02:23:51.762Z,92.34
2017-09-01T02:24:52.097Z,91.19
2017-09-01T02:25:51.808Z,90.23
2017-09-01T02:26:51.822Z,91
2017-09-01T02:27:51.848Z,90.04
2017-09-01T02:28:51.879Z,90.04
2017-09-01T02:29:51.891Z,89.94
2017-09-01T02:30:51.917Z,90.33
2017-09-01T02:31:51.943Z,89.18
2017-09-01T02:32:51.960Z,89.85
2017-09-01T02:33:51.989Z,89.08
2017-09-01T02:34:52.006Z,91.48
2017-09-01T02:35:52.031Z,90.9
2017-09-01T02:36:52.053Z,88.79
2017-09-01T02:37:52.384Z,89.27
2017-09-01T02:38:52.096Z,90.81
2017-09-01T02:39:52.124Z,89.27
2017-09-01T02:40:52.143Z,89.08
2017-09-01T02:41:52.483Z,89.08
2017-09-01T02:42:52.187Z,89.56
2017-09-01T02:43:52.212Z,90.81
2017-09-01T02:44:52.230Z,89.65
2017-09-01T02:45:52.253Z,89.18
2017-09-01T02:46:52.609Z,89.18
2017-09-01T02:47:52.648Z,89.27
2017-09-01T02:48:52.323Z,89.94
2017-09-01T02:49:52.341Z,89.75
2017-09-01T02:50:52.364Z,88.7
2017-09-01T02:51:52.389Z,90.42
2017-09-01T02:52:52.428Z,90.23
2017-09-01T02:53:52.436Z,90.81
2017-09-01T02:54:52.484Z,89.51
2017-09-01T02:55:52.487Z,87.74
2017-09-01T02:56:52.499Z,90.42
2017-09-01T02:57:52.528Z,89.18
2017-09-01T02:58:52.549Z,88.17
2017-09-01T02:59:52.565Z,88.41
2017-09-01T03:00:52.589Z,89.27
2017-09-01T03:01:52.615Z,89.18
2017-09-01T03:02:52.636Z,89.08
2017-09-01T03:03:52.664Z,87.84
2017-09-01T03:04:52.684Z,87.3
2017-09-01T03:05:52.705Z,86.88
2017-09-01T03:06:52.781Z,88.31
2017-09-01T03:07:52.756Z,89.18
2017-09-01T03:08:52.779Z,88.98
2017-09-01T03:09:52.795Z,89.27
2017-09-01T03:10:52.819Z,89.56
2017-09-01T03:11:52.839Z,89.56
2017-09-01T03:12:52.863Z,88.31
2017-09-01T03:13:52.890Z,88.12
2017-09-01T03:14:52.910Z,90.61
2017-09-01T03:15:52.932Z,89.94
2017-09-01T03:16:52.959Z,88.89
2017-09-01T03:17:52.980Z,90.61
2017-09-01T03:18:53.022Z,90.61
2017-09-01T03:19:53.021Z,89.27
2017-09-01T03:20:53.041Z,88.22
2017-09-01T03:21:53.069Z,87.74
2017-09-01T03:22:53.139Z,87.64
2017-09-01T03:23:53.122Z,87.74
2017-09-01T03:24:53.142Z,88.7
2017-09-01T03:25:53.159Z,88.22
2017-09-01T03:26:53.180Z,88.94
2017-09-01T03:27:53.206Z,88.7
2017-09-01T03:28:53.228Z,89.65
2017-09-01T03:29:53.247Z,90.71
2017-09-01T03:30:53.278Z,90.23
2017-09-01T03:31:53.311Z,89.65
2017-09-01T03:32:53.322Z,90.23
2017-09-01T03:33:53.348Z,89.18
2017-09-01T03:34:53.363Z,89.85
2017-09-01T03:35:53.386Z,89.65
2017-09-01T03:36:53.407Z,88.98
2017-09-01T03:37:53.428Z,90.47
2017-09-01T03:38:53.453Z,91.24
2017-09-01T03:39:53.526Z,90.04
2017-09-01T03:40:53.494Z,90.19
2017-09-01T03:41:53.522Z,90.67
2017-09-01T03:42:53.543Z,90.19
2017-09-01T03:43:53.561Z,89.71
2017-09-01T03:44:53.596Z,90.57
2017-09-01T03:45:53.609Z,89.9
2017-09-01T03:46:53.632Z,90.67
2017-09-01T03:47:53.656Z,91.05
2017-09-01T03:48:53.683Z,90.86
2017-09-01T03:49:53.707Z,90.67
2017-09-01T03:50:53.721Z,90.95
2017-09-01T03:51:53.744Z,91.34
2017-09-01T03:52:53.769Z,92.01
2017-09-01T03:53:53.788Z,92.2
2017-09-01T03:54:53.814Z,89.13
2017-09-01T03:55:53.834Z,89.23
2017-09-01T03:56:53.855Z,89.9
2017-09-01T03:57:53.928Z,89.8
2017-09-01T03:58:53.901Z,90.76
2017-09-01T03:59:53.927Z,90.67
2017-09-01T04:00:53.943Z,89.61
2017-09-01T04:01:53.965Z,88.75
2017-09-01T04:02:53.987Z,90
2017-09-01T04:03:54.009Z,89.61
2017-09-01T04:04:54.043Z,88.37
2017-09-01T04:05:54.076Z,88.94
2017-09-01T04:06:54.077Z,89.9
2017-09-01T04:07:54.099Z,89.61
2017-09-01T04:08:54.459Z,89.23
2017-09-01T04:09:54.151Z,89.9
2017-09-01T04:10:54.171Z,90.76
2017-09-01T04:11:54.206Z,89.9
2017-09-01T04:12:54.210Z,90.47
2017-09-01T04:13:54.281Z,90.95
2017-09-01T04:14:54.256Z,91.91
2017-09-01T04:15:54.274Z,91.53
2017-09-01T04:16:54.299Z,91.86
2017-09-01T04:17:54.327Z,90.86
2017-09-01T04:18:54.348Z,89.9
2017-09-01T04:19:54.363Z,90.57
2017-09-01T04:20:54.396Z,90.19
2017-09-01T04:21:54.412Z,89.71
2017-09-01T04:22:54.433Z,90.57
2017-09-01T04:23:54.460Z,90.57
2017-09-01T04:24:54.820Z,88.94
2017-09-01T04:25:54.500Z,89.32
2017-09-01T04:26:54.525Z,89.51
2017-09-01T04:27:54.545Z,87.6
2017-09-01T04:28:54.566Z,88.46
2017-09-01T04:29:54.593Z,86.93
2017-09-01T04:30:54.612Z,87.7
2017-09-01T04:31:54.636Z,87.12
2017-09-01T04:32:54.661Z,87.08
2017-09-01T04:33:54.680Z,87.65
2017-09-01T04:34:54.736Z,87.65
2017-09-01T04:35:54.752Z,87.65
2017-09-01T04:36:54.753Z,89.28
2017-09-01T04:37:54.769Z,89.86
2017-09-01T04:38:54.790Z,89.51
2017-09-01T04:39:54.812Z,89.23
2017-09-01T04:40:54.837Z,88.56
2017-09-01T04:41:54.863Z,89.42
2017-09-01T04:42:54.880Z,89.42
2017-09-01T04:43:55.217Z,89.61
2017-09-01T04:44:54.936Z,89.42
2017-09-01T04:45:54.946Z,88.08
2017-09-01T04:46:54.970Z,87.79
2017-09-01T04:47:55.000Z,87.84
2017-09-01T04:48:55.068Z,86.83
2017-09-01T04:49:55.035Z,87.84
2017-09-01T04:50:55.067Z,88.51
2017-09-01T04:51:55.398Z,89.23
2017-09-01T04:52:55.416Z,89.23
2017-09-01T04:53:55.177Z,88.17
2017-09-01T04:54:55.147Z,88.27
2017-09-01T04:55:55.173Z,88.84
2017-09-01T04:56:55.214Z,87.5
2017-09-01T04:57:55.219Z,88.08
2017-09-01T04:58:55.247Z,86.74
2017-09-01T04:59:55.260Z,87.79
2017-09-01T05:00:55.285Z,87.31
2017-09-01T05:01:55.304Z,87.02
2017-09-01T05:02:55.331Z,87.6
2017-09-01T05:03:55.352Z,87.7
2017-09-01T05:04:55.369Z,87.31
2017-09-01T05:05:55.403Z,86.74
2017-09-01T05:06:55.418Z,87.79
2017-09-01T05:07:55.442Z,86.93
2017-09-01T05:08:55.460Z,87.5
2017-09-01T05:09:55.483Z,87.31
2017-09-01T05:10:55.510Z,88.37
2017-09-01T05:11:55.534Z,88.65
2017-09-01T05:12:55.865Z,87.88
2017-09-01T05:13:55.572Z,86.64
2017-09-01T05:14:55.598Z,87.5
2017-09-01T05:15:55.625Z,87.5
2017-09-01T05:16:55.638Z,88.46
2017-09-01T05:17:55.660Z,88.84
2017-09-01T05:18:55.681Z,87.7
2017-09-01T05:19:56.020Z,87.41
2017-09-01T05:20:55.734Z,88.75
2017-09-01T05:21:55.754Z,88.56
2017-09-01T05:22:55.780Z,90.09
2017-09-01T05:23:55.800Z,89.27
2017-09-01T05:24:55.826Z,88.75
2017-09-01T05:25:55.847Z,88.17
2017-09-01T05:26:55.867Z,88.17
2017-09-01T05:27:55.886Z,88.08
2017-09-01T05:28:55.927Z,88.65
2017-09-01T05:29:55.934Z,89.8
2017-09-01T05:30:55.957Z,89.42
2017-09-01T05:31:55.978Z,90.38
2017-09-01T05:32:56.000Z,90.28
2017-09-01T05:33:56.028Z,89.32
2017-09-01T05:34:56.045Z,90
2017-09-01T05:35:56.069Z,90.19
2017-09-01T05:36:56.090Z,90.47
2017-09-01T05:37:56.114Z,90
2017-09-01T05:38:56.138Z,90.19
2017-09-01T05:39:56.207Z,90.09
2017-09-01T05:40:56.186Z,90
2017-09-01T05:41:56.210Z,91.72
2017-09-01T05:42:56.226Z,90.38
2017-09-01T05:43:56.249Z,89.71
2017-09-01T05:44:56.268Z,88.46
2017-09-01T05:45:56.299Z,90.28
2017-09-01T05:46:56.317Z,90.47
2017-09-01T05:47:56.339Z,90.28
2017-09-01T05:48:56.363Z,90.09
2017-09-01T05:49:56.703Z,89.13
2017-09-01T05:50:56.403Z,90.67
2017-09-01T05:51:56.431Z,90.28
2017-09-01T05:52:56.473Z,90.09
2017-09-01T05:53:56.476Z,89.32
2017-09-01T05:54:56.552Z,89.51
2017-09-01T05:55:56.521Z,90.38
2017-09-01T05:56:56.541Z,88.46
2017-09-01T05:57:56.563Z,89.09
2017-09-01T05:58:56.892Z,90.14
2017-09-01T05:59:56.610Z,90.62
2017-09-01T06:00:56.953Z,90.33
2017-09-01T06:01:56.653Z,91.19
2017-09-01T06:02:56.680Z,90.95
2017-09-01T06:03:56.704Z,90.72
2017-09-01T06:04:56.728Z,90.57
2017-09-01T06:05:56.747Z,90.57
2017-09-01T06:06:57.085Z,91.91
2017-09-01T06:07:56.785Z,90.38
2017-09-01T06:08:56.816Z,90.14
2017-09-01T06:09:56.835Z,89.18
2017-09-01T06:10:56.858Z,89.28
2017-09-01T06:11:56.897Z,90.14
2017-09-01T06:12:56.902Z,90.33
2017-09-01T06:13:56.924Z,90.05
2017-09-01T06:14:56.954Z,90.23
2017-09-01T06:15:56.971Z,90.09
2017-09-01T06:16:56.992Z,90.38
2017-09-01T06:17:57.024Z,91.67
2017-09-01T06:18:57.035Z,90.67
2017-09-01T06:19:57.060Z,90.67
2017-09-01T06:20:57.090Z,89.9
2017-09-01T06:21:57.118Z,90.57
2017-09-01T06:22:57.144Z,90.76
2017-09-01T06:23:57.166Z,90.76
2017-09-01T06:24:57.173Z,90.09
2017-09-01T06:25:57.209Z,90.28
2017-09-01T06:26:57.215Z,89.9
2017-09-01T06:27:57.246Z,88.94
2017-09-01T06:28:57.307Z,89.13
2017-09-01T06:29:57.300Z,89.9
2017-09-01T06:30:57.304Z,89.13
2017-09-01T06:31:57.331Z,87.7
2017-09-01T06:32:57.354Z,87.41
2017-09-01T06:33:57.369Z,87.6
2017-09-01T06:34:57.395Z,88.65
2017-09-01T06:35:57.416Z,88.84
2017-09-01T06:36:57.437Z,88.37
2017-09-01T06:37:57.461Z,88.75
2017-09-01T06:38:57.489Z,88.75
2017-09-01T06:39:57.508Z,89.42
2017-09-01T06:40:57.528Z,89.13
2017-09-01T06:41:57.865Z,89.56
2017-09-01T06:42:57.579Z,87.64
2017-09-01T06:43:57.597Z,87.6
2017-09-01T06:44:57.621Z,89.51
2017-09-01T06:45:57.653Z,90.09
2017-09-01T06:46:57.734Z,89.61
2017-09-01T06:47:57.694Z,90.38
2017-09-01T06:48:57.712Z,90.38
2017-09-01T06:49:58.051Z,90.28
2017-09-01T06:50:57.757Z,89.32
2017-09-01T06:51:57.778Z,87.41
2017-09-01T06:52:57.802Z,87.6
2017-09-01T06:53:57.829Z,88.56
2017-09-01T06:54:57.845Z,88.56
2017-09-01T06:55:57.866Z,88.17
2017-09-01T06:56:57.895Z,87.6
2017-09-01T06:57:57.911Z,87.84
2017-09-01T06:58:57.933Z,90.28
2017-09-01T06:59:57.959Z,90.57
2017-09-01T07:00:57.986Z,91.05
2017-09-01T07:01:58.003Z,91.05
2017-09-01T07:02:58.027Z,90.28
2017-09-01T07:03:58.048Z,90.86
2017-09-01T07:04:58.069Z,89.42
2017-09-01T07:05:58.099Z,87.5
2017-09-01T07:06:58.117Z,89.04
2017-09-01T07:07:58.144Z,89.8
2017-09-01T07:08:58.214Z,90.76
2017-09-01T07:09:58.197Z,91.53
2017-09-01T07:10:58.204Z,92.97
2017-09-01T07:11:58.226Z,91.86
2017-09-01T07:12:58.251Z,93.35
2017-09-01T07:13:58.582Z,91.86
2017-09-01T07:14:58.301Z,90.71
2017-09-01T07:15:58.319Z,89.85
2017-09-01T07:16:58.339Z,90.04
2017-09-01T07:17:58.361Z,88.75
2017-09-01T07:18:58.383Z,90.76
2017-09-01T07:19:58.408Z,88.98
2017-09-01T07:20:58.740Z,90.09
2017-09-01T07:21:58.452Z,86.74
2017-09-01T07:22:58.476Z,87.7
2017-09-01T07:23:58.498Z,88.65
2017-09-01T07:24:58.694Z,89.04
2017-09-01T07:25:58.543Z,89.32
2017-09-01T07:26:58.568Z,89.32
2017-09-01T07:27:58.595Z,87.88
2017-09-01T07:28:58.610Z,88.94
2017-09-01T07:29:58.634Z,89.51
2017-09-01T07:30:58.663Z,90.76
2017-09-01T07:31:58.680Z,90.23
2017-09-01T07:32:58.709Z,90.61
2017-09-01T07:33:58.723Z,89.75
2017-09-01T07:34:58.743Z,90.42
2017-09-01T07:35:58.765Z,90.52
2017-09-01T07:36:58.789Z,90.81
2017-09-01T07:37:58.810Z,90.61
2017-09-01T07:38:58.837Z,89.47
2017-09-01T07:39:58.874Z,89.27
2017-09-01T07:40:58.880Z,88.79
2017-09-01T07:41:58.903Z,90.23
2017-09-01T07:42:58.928Z,89.75
2017-09-01T07:43:58.947Z,89.27
2017-09-01T07:44:58.969Z,88.98
2017-09-01T07:45:58.994Z,88.79
2017-09-01T07:46:59.329Z,90.61
2017-09-01T07:47:59.041Z,90.23
2017-09-01T07:48:59.059Z,89.18
2017-09-01T07:49:59.085Z,88.12
2017-09-01T07:50:59.108Z,87.45
2017-09-01T07:51:59.129Z,88.79
2017-09-01T07:52:59.155Z,89.27
2017-09-01T07:53:59.174Z,90.61
2017-09-01T07:54:59.193Z,89.27
2017-09-01T07:55:59.219Z,86.58
2017-09-01T07:56:59.290Z,87.35
2017-09-01T07:57:59.264Z,86.01
2017-09-01T07:58:59.284Z,86.58
2017-09-01T07:59:59.310Z,86.88
2017-09-01T08:00:59.330Z,88.6
2017-09-01T08:01:59.355Z,89.18
2017-09-01T08:02:59.380Z,87.45
2017-09-01T08:03:59.417Z,86.49
2017-09-01T08:04:59.426Z,86.3
2017-09-01T08:05:59.443Z,86.58
2017-09-01T08:06:59.466Z,87.31
2017-09-01T08:07:59.492Z,86.07
2017-09-01T08:08:59.516Z,87.5
2017-09-01T08:09:59.535Z,87.84
2017-09-01T08:10:59.568Z,89.18
2017-09-01T08:11:59.589Z,88.6
2017-09-01T08:12:59.604Z,87.45
2017-09-01T08:13:59.635Z,90.14
2017-09-01T08:14:59.703Z,87.55
2017-09-01T08:15:59.747Z,87.64
2017-09-01T08:16:59.695Z,86.21
2017-09-01T08:17:59.716Z,88.89
2017-09-01T08:18:59.739Z,88.7
2017-09-01T08:19:59.763Z,87.55
2017-09-01T08:20:59.784Z,85.92
2017-09-01T08:21:59.809Z,89.56
2017-09-01T08:22:59.830Z,89.75
2017-09-01T08:23:59.852Z,87.55
2017-09-01T08:25:00.074Z,84.48
2017-09-01T08:25:59.902Z,85.39
2017-09-01T08:26:59.920Z,86.74
2017-09-01T08:27:59.942Z,87.12
2017-09-01T08:28:59.969Z,89.23
2017-09-01T08:30:00.037Z,88.75
2017-09-01T08:31:00.012Z,88.65
2017-09-01T08:32:00.043Z,89.18
2017-09-01T08:33:00.057Z,89.32
2017-09-01T08:34:00.104Z,87.55
2017-09-01T08:35:00.101Z,88.27
2017-09-01T08:36:00.126Z,86.64
2017-09-01T08:37:00.150Z,86.93
2017-09-01T08:38:00.173Z,87.88
2017-09-01T08:39:00.193Z,88.56
2017-09-01T08:40:00.215Z,85.88
2017-09-01T08:41:00.240Z,86.35
2017-09-01T08:42:00.260Z,87.41
2017-09-01T08:43:00.285Z,87.21
2017-09-01T08:44:00.307Z,85.49
2017-09-01T08:45:00.383Z,85.83
2017-09-01T08:46:00.352Z,87.17
2017-09-01T08:47:00.374Z,85.93
2017-09-01T08:48:00.397Z,86.79
2017-09-01T08:49:00.422Z,88.61
2017-09-01T08:50:00.447Z,86.79
2017-09-01T08:51:00.462Z,89.37
2017-09-01T08:52:00.488Z,88.7
2017-09-01T08:53:00.508Z,88.51
2017-09-01T08:54:00.528Z,88.42
2017-09-01T08:55:00.557Z,88.46
2017-09-01T08:56:00.574Z,89.09
2017-09-01T08:57:00.597Z,88.9
2017-09-01T08:58:00.641Z,90.62
2017-09-01T08:59:00.644Z,90.67
2017-09-01T09:00:00.714Z,89.61
2017-09-01T09:01:00.682Z,90.47
2017-09-01T09:02:00.711Z,89.04
2017-09-01T09:03:00.736Z,89.47
2017-09-01T09:04:00.755Z,89.57
2017-09-01T09:05:00.773Z,88.8
2017-09-01T09:06:00.798Z,89.18
2017-09-01T09:07:00.816Z,89.57
2017-09-01T09:08:00.836Z,90.72
2017-09-01T09:09:00.858Z,91.86
2017-09-01T09:10:00.883Z,89.09
2017-09-01T09:11:00.905Z,89.76
2017-09-01T09:12:00.924Z,90.72
2017-09-01T09:13:00.948Z,91.19
2017-09-01T09:14:00.985Z,90.53
2017-09-01T09:15:01.002Z,91.19
2017-09-01T09:16:01.069Z,91
2017-09-01T09:17:01.038Z,91.29
2017-09-01T09:18:01.056Z,91.77
2017-09-01T09:19:01.086Z,92.15
2017-09-01T09:20:01.100Z,91.39
2017-09-01T09:21:01.141Z,90.05
2017-09-01T09:22:01.146Z,91.1
2017-09-01T09:23:01.167Z,91.05
2017-09-01T09:24:01.189Z,89.86
2017-09-01T09:25:01.210Z,90.19
2017-09-01T09:26:01.245Z,89.47
2017-09-01T09:27:01.254Z,89.28
2017-09-01T09:28:01.277Z,90.05
2017-09-01T09:29:01.304Z,91.1
2017-09-01T09:30:01.321Z,91.96
2017-09-01T09:31:01.346Z,91.24
2017-09-01T09:32:01.367Z,92.01
2017-09-01T09:33:01.396Z,92.01
2017-09-01T09:34:01.410Z,91.82
2017-09-01T09:35:01.438Z,90.53
2017-09-01T09:36:01.453Z,89.66
2017-09-01T09:37:01.475Z,91.77
2017-09-01T09:38:01.504Z,91.39
2017-09-01T09:39:01.937Z,91.96
2017-09-01T09:40:01.549Z,90.53
2017-09-01T09:41:01.563Z,90.72
2017-09-01T09:42:01.585Z,90.62
2017-09-01T09:43:01.616Z,90.14
2017-09-01T09:44:01.649Z,90.53
2017-09-01T09:45:01.659Z,91
2017-09-01T09:46:01.683Z,93.49
2017-09-01T09:47:01.748Z,91.77
2017-09-01T09:48:01.736Z,90.43
2017-09-01T09:49:01.741Z,90.23
2017-09-01T09:50:01.766Z,92.92
2017-09-01T09:51:01.794Z,93.3
2017-09-01T09:52:01.807Z,91.96
2017-09-01T09:53:01.834Z,93.3
2017-09-01T09:54:01.853Z,91.86
2017-09-01T09:55:02.194Z,89.47
2017-09-01T09:56:01.896Z,90.53
2017-09-01T09:57:01.923Z,90.05
2017-09-01T09:58:01.943Z,91.1
2017-09-01T09:59:01.969Z,90.62
2017-09-01T10:00:01.986Z,91.1
2017-09-01T10:01:02.025Z,91.49
2017-09-01T10:02:02.033Z,92.44
2017-09-01T10:03:02.378Z,90.43
2017-09-01T10:04:02.232Z,91.1
2017-09-01T10:05:02.104Z,93.02
2017-09-01T10:06:02.121Z,93.63
2017-09-01T10:07:02.148Z,92.82
2017-09-01T10:08:02.166Z,93.02
2017-09-01T10:09:02.192Z,93.73
2017-09-01T10:10:02.216Z,90.38
2017-09-01T10:11:02.239Z,90.33
2017-09-01T10:12:02.255Z,89.66
2017-09-01T10:13:02.277Z,91.96
2017-09-01T10:14:02.326Z,92.06
2017-09-01T10:15:02.329Z,92.73
2017-09-01T10:16:02.345Z,93.69
2017-09-01T10:17:02.367Z,92.1
2017-09-01T10:18:02.389Z,91.49
2017-09-01T10:19:02.409Z,90.81
2017-09-01T10:20:02.481Z,90.23
2017-09-01T10:21:02.460Z,90.81
2017-09-01T10:22:02.477Z,91.96
2017-09-01T10:23:02.502Z,91.86
2017-09-01T10:24:02.522Z,91.53
2017-09-01T10:25:02.543Z,92.2
2017-09-01T10:26:02.578Z,91.14
2017-09-01T10:27:02.587Z,90.86
2017-09-01T10:28:02.791Z,93.44
2017-09-01T10:29:02.635Z,94.4
2017-09-01T10:30:02.665Z,94.59
2017-09-01T10:31:02.679Z,91.82
2017-09-01T10:32:02.701Z,90.76
2017-09-01T10:33:02.722Z,92.2
2017-09-01T10:34:03.059Z,92.87
2017-09-01T10:35:02.770Z,94.02
2017-09-01T10:36:02.787Z,92.3
2017-09-01T10:37:02.827Z,92.39
2017-09-01T10:38:02.882Z,93.44
2017-09-01T10:39:02.856Z,92.63
2017-09-01T10:40:02.876Z,93.01
2017-09-01T10:41:02.903Z,93.68
2017-09-01T10:42:02.925Z,95.31
2017-09-01T10:43:02.943Z,96.27
2017-09-01T10:44:02.968Z,94.35
2017-09-01T10:45:02.992Z,93.21
2017-09-01T10:46:03.016Z,95.12
2017-09-01T10:47:03.037Z,92.63
2017-09-01T10:48:03.067Z,91.86
2017-09-01T10:49:03.078Z,91.96
2017-09-01T10:50:03.102Z,90.42
2017-09-01T10:51:03.438Z,89.85
2017-09-01T10:52:03.149Z,90.33
2017-09-01T10:53:03.172Z,89.75
2017-09-01T10:54:03.195Z,88.6
2017-09-01T10:55:03.219Z,88.12
2017-09-01T10:56:03.240Z,89.65
2017-09-01T10:57:03.578Z,88.6
2017-09-01T10:58:03.286Z,88.22
2017-09-01T10:59:03.311Z,88.98
2017-09-01T11:00:03.332Z,88.07
2017-09-01T11:01:03.370Z,90.66
2017-09-01T11:02:03.379Z,93.15
2017-09-01T11:03:03.407Z,90.56
2017-09-01T11:04:03.474Z,89.61
2017-09-01T11:05:03.452Z,88.45
2017-09-01T11:06:03.783Z,87.88
2017-09-01T11:07:03.493Z,89.32
2017-09-01T11:08:03.531Z,88.65
2017-09-01T11:09:03.538Z,87.21
2017-09-01T11:10:03.560Z,87.4
2017-09-01T11:11:03.608Z,88.65
2017-09-01T11:12:03.614Z,86.72
2017-09-01T11:13:03.638Z,88.35
2017-09-01T11:14:03.656Z,87.78
2017-09-01T11:15:03.684Z,90.18
2017-09-01T11:16:03.714Z,87.59
2017-09-01T11:17:03.727Z,86.82
2017-09-01T11:18:03.751Z,85.1
2017-09-01T11:19:03.774Z,87.49
2017-09-01T11:20:03.802Z,86.82
2017-09-01T11:21:03.825Z,87.68
2017-09-01T11:22:03.845Z,88.07
2017-09-01T11:23:04.198Z,88.74
2017-09-01T11:24:03.886Z,88.65
2017-09-01T11:25:03.917Z,89.99
2017-09-01T11:26:03.936Z,87.82
2017-09-01T11:27:03.956Z,85.14
2017-09-01T11:28:04.290Z,88.4
2017-09-01T11:29:04.319Z,87.05
2017-09-01T11:30:04.030Z,87.73
2017-09-01T11:31:04.052Z,87.05
2017-09-01T11:32:04.091Z,90.56
2017-09-01T11:33:04.437Z,82.64
2017-09-01T11:34:04.119Z,83.56
2017-09-01T11:35:04.147Z,86.92
2017-09-01T11:36:04.175Z,88.65
2017-09-01T11:37:04.513Z,85.48
2017-09-01T11:38:04.210Z,87.49
2017-09-01T11:39:04.251Z,85.28
2017-09-01T11:40:04.314Z,87.68
2017-09-01T11:41:04.283Z,88.07
2017-09-01T11:42:04.307Z,90.28
2017-09-01T11:43:04.336Z,87.54
2017-09-01T11:44:04.354Z,86.77
2017-09-01T11:45:04.376Z,87.73
2017-09-01T11:46:04.406Z,84.85
2017-09-01T11:47:04.423Z,86.96
2017-09-01T11:48:04.459Z,85.91
2017-09-01T11:49:04.470Z,86.19
2017-09-01T11:50:04.494Z,86.58
2017-09-01T11:51:04.520Z,84.85
2017-09-01T11:52:04.587Z,88.69
2017-09-01T11:53:04.566Z,85.91
2017-09-01T11:54:04.589Z,87.68
2017-09-01T11:55:04.617Z,88.59
2017-09-01T11:56:04.691Z,89.12
2017-09-01T11:57:04.657Z,87.49
2017-09-01T11:58:04.680Z,87.77
2017-09-01T11:59:04.705Z,86.81
2017-09-01T12:00:04.732Z,84.12
2017-09-01T12:01:04.756Z,84.12
2017-09-01T12:02:04.802Z,85.75
2017-09-01T12:03:04.814Z,85.57
2017-09-01T12:04:04.829Z,87.05
2017-09-01T12:05:05.216Z,83.3
2017-09-01T12:06:05.375Z,82.15
2017-09-01T12:07:04.900Z,82.63
2017-09-01T12:08:04.924Z,85.32
2017-09-01T12:09:04.945Z,83.01
2017-09-01T12:10:04.984Z,83.3
2017-09-01T12:11:05.043Z,83.2
2017-09-01T12:12:05.014Z,80.22
2017-09-01T12:13:05.042Z,80.13
2017-09-01T12:14:05.067Z,80.19
2017-09-01T12:15:05.406Z,81.15
2017-09-01T12:16:05.112Z,82.2
2017-09-01T12:17:05.138Z,84.31
2017-09-01T12:18:05.230Z,87.01
2017-09-01T12:19:05.184Z,83.74
2017-09-01T12:20:05.215Z,79.22
2017-09-01T12:21:05.234Z,80.57
2017-09-01T12:22:05.273Z,82.16
2017-09-01T12:23:05.280Z,83.93
2017-09-01T12:24:05.308Z,83.26
2017-09-01T12:25:05.332Z,82.84
2017-09-01T12:26:05.348Z,82.07
2017-09-01T12:27:05.371Z,81.68
2017-09-01T12:28:05.402Z,80.53
2017-09-01T12:29:05.466Z,80.82
2017-09-01T12:30:05.441Z,82.45
2017-09-01T12:31:05.467Z,81.49
2017-09-01T12:32:05.491Z,80.91
2017-09-01T12:33:05.515Z,81.74
2017-09-01T12:34:05.543Z,80.68
2017-09-01T12:35:05.560Z,81.45
2017-09-01T12:36:05.781Z,81.84
2017-09-01T12:37:05.604Z,83.18
2017-09-01T12:38:05.628Z,84.42
2017-09-01T12:39:05.661Z,83.94
2017-09-01T12:40:05.672Z,87.21
2017-09-01T12:41:05.705Z,86.48
2017-09-01T12:42:05.746Z,87.35
2017-09-01T12:43:05.744Z,85.62
2017-09-01T12:44:05.769Z,83.6
2017-09-01T12:45:05.789Z,83.7
2017-09-01T12:46:05.815Z,84.47
2017-09-01T12:47:06.152Z,87.29
2017-09-01T12:48:05.964Z,83.26
2017-09-01T12:49:05.895Z,82.1
2017-09-01T12:50:06.217Z,79.8
2017-09-01T12:51:05.934Z,80.28
2017-09-01T12:52:05.954Z,78.08
2017-09-01T12:53:05.985Z,78.75
2017-09-01T12:54:06.005Z,79.09
2017-09-01T12:55:06.025Z,79.13
2017-09-01T12:56:06.050Z,78.7
2017-09-01T12:57:06.073Z,77.69